Williston, ND

7:47 PM CDT on March 29, 2015 (GMT -0500)
Valhalla | | Change Station
CLOSE
Current Station
Personal Weather Station
Location: Williston, ND
Elevation: 2040 ft
Nearby Weather Stations

Elev 2040 ft 48.33 °N, 103.62 °W | Updated 23 seconds ago

Partly Cloudy
Partly Cloudy
54.0 °F
Feels Like 54.0 °F
N
4.3
Wind Variable Wind from SW
Gusts 4.3 mph

Today
High -- | Low -- °F
--% Chance of Precip.
Yesterday
High -- | Low -- °F
Precip. -- in
7:39 AM 8:20 PM
Waxing Gibbous, 75% visible
Pressure 29.96 in
Visibility 10.0 miles
Clouds Scattered Clouds 7500 ft
Dew Point 32 °F
Humidity 43%
Rainfall 0.04 in
Snow Depth Not available.
UV 1 out of 12
Pollen 4.70 out of 12
Air Quality Not available.
Flu Activity Not available.
METAR KISN 292352Z AUTO 26011G19KT 10SM SCT075 15/01 A2993 RMK AO2 SLP146 T01500006 10167 20111 56019

More Conditions Fewer Conditions

Pressure 29.96 in
Visibility 10.0 miles
Clouds Scattered Clouds 7500 ft
Dew Point 32 °F
Humidity 43%
Rainfall 0.04 in
Snow Depth Not available.
UV 1 out of 12
Pollen 4.70 out of 12
Air Quality Not available.
Flu Activity Not available.
METAR KISN 292352Z AUTO 26011G19KT 10SM SCT075 15/01 A2993 RMK AO2 SLP146 T01500006 10167 20111 56019

More Conditions Fewer Conditions

10-Day Weather Forecast

Almanac

Astronomy

Mar. 29, 2015 Rise Set
Actual Time
Civil Twilight
Nautical Twilight
Astronomical Twilight
Moon
Length of Visible Light
Length of Day
Tomorrow will be .
, % of the Moon is Illuminated

Today's Extremes

State Highs State Lows

Community

WunderPhotos

Upload Photos

1,809,389 photos uploaded!

WunderBlogs® & News

Nearby

Air Quality

  Air Quality AQ Index Pollutant
Not available.

Snow Depth

Station Depth Elevation

Earthquake Activity

City Distance Mag. Time & Date
Minimum magnitude displayed is 2.5.

Coastal Water Temperatures

Place Temperature

Stations

Nearby Weather Stations

Station Location Temp. Windchill Dew Point Humidity Wind Precip. Elev Updated Type